sensor_id;sensor_type;location;lat;lon;timestamp;P1;durP1;ratioP1;P2;durP2;ratioP2
21170;SDS011;10743;52.160;20.910;2023-05-09T00:01:26;110.70;;;74.23;;
21170;SDS011;10743;52.160;20.910;2023-05-09T00:03:55;104.80;;;60.40;;
21170;SDS011;10743;52.160;20.910;2023-05-09T00:06:24;80.87;;;28.17;;
21170;SDS011;10743;52.160;20.910;2023-05-09T00:08:56;159.67;;;102.53;;
21170;SDS011;10743;52.160;20.910;2023-05-09T00:11:23;135.57;;;82.93;;
21170;SDS011;10743;52.160;20.910;2023-05-09T00:13:50;163.80;;;99.87;;
21170;SDS011;10743;52.160;20.910;2023-05-09T00:16:17;138.23;;;86.33;;
21170;SDS011;10743;52.160;20.910;2023-05-09T00:18:45;139.03;;;70.90;;
21170;SDS011;10743;52.160;20.910;2023-05-09T00:21:13;121.30;;;62.87;;
21170;SDS011;10743;52.160;20.910;2023-05-09T00:23:40;141.40;;;82.40;;
21170;SDS011;10743;52.160;20.910;2023-05-09T00:26:07;160.10;;;92.07;;
21170;SDS011;10743;52.160;20.910;2023-05-09T00:28:35;153.03;;;93.03;;
21170;SDS011;10743;52.160;20.910;2023-05-09T00:31:03;112.90;;;52.00;;
21170;SDS011;10743;52.160;20.910;2023-05-09T00:33:30;152.23;;;104.67;;
21170;SDS011;10743;52.160;20.910;2023-05-09T00:35:57;129.53;;;75.83;;
21170;SDS011;10743;52.160;20.910;2023-05-09T00:38:25;136.97;;;85.20;;
21170;SDS011;10743;52.160;20.910;2023-05-09T00:40:52;151.37;;;104.10;;
21170;SDS011;10743;52.160;20.910;2023-05-09T00:43:19;152.63;;;102.20;;
21170;SDS011;10743;52.160;20.910;2023-05-09T00:45:47;135.20;;;68.97;;
21170;SDS011;10743;52.160;20.910;2023-05-09T00:48:14;129.57;;;88.00;;
21170;SDS011;10743;52.160;20.910;2023-05-09T00:50:42;119.97;;;66.80;;
21170;SDS011;10743;52.160;20.910;2023-05-09T00:53:09;116.20;;;87.40;;
21170;SDS011;10743;52.160;20.910;2023-05-09T00:55:36;114.37;;;64.30;;
21170;SDS011;10743;52.160;20.910;2023-05-09T00:58:03;96.73;;;64.63;;
21170;SDS011;10743;52.160;20.910;2023-05-09T01:00:30;90.87;;;57.07;;
21170;SDS011;10743;52.160;20.910;2023-05-09T01:02:57;96.10;;;50.90;;
21170;SDS011;10743;52.160;20.910;2023-05-09T01:05:27;103.53;;;60.80;;
21170;SDS011;10743;52.160;20.910;2023-05-09T01:11:35;99.40;;;61.63;;
21170;SDS011;10743;52.160;20.910;2023-05-09T01:14:24;113.97;;;69.03;;
21170;SDS011;10743;52.160;20.910;2023-05-09T01:17:30;126.03;;;62.03;;
21170;SDS011;10743;52.160;20.910;2023-05-09T01:31:00;89.00;;;52.87;;
21170;SDS011;10743;52.160;20.910;2023-05-09T01:33:30;115.57;;;102.87;;
21170;SDS011;10743;52.160;20.910;2023-05-09T01:36:03;106.63;;;81.67;;
21170;SDS011;10743;52.160;20.910;2023-05-09T01:38:35;119.03;;;96.43;;
21170;SDS011;10743;52.160;20.910;2023-05-09T01:41:04;83.73;;;40.60;;
21170;SDS011;10743;52.160;20.910;2023-05-09T01:43:34;100.23;;;70.07;;
21170;SDS011;10743;52.160;20.910;2023-05-09T01:46:04;96.77;;;70.37;;
21170;SDS011;10743;52.160;20.910;2023-05-09T01:48:32;84.53;;;50.57;;
21170;SDS011;10743;52.160;20.910;2023-05-09T01:51:02;75.63;;;55.80;;
21170;SDS011;10743;52.160;20.910;2023-05-09T01:53:30;79.90;;;49.30;;
21170;SDS011;10743;52.160;20.910;2023-05-09T01:55:59;105.07;;;60.60;;
21170;SDS011;10743;52.160;20.910;2023-05-09T01:58:30;90.57;;;63.30;;
21170;SDS011;10743;52.160;20.910;2023-05-09T02:00:59;113.03;;;83.87;;
21170;SDS011;10743;52.160;20.910;2023-05-09T02:03:27;96.87;;;73.37;;
21170;SDS011;10743;52.160;20.910;2023-05-09T02:05:55;123.03;;;97.60;;
21170;SDS011;10743;52.160;20.910;2023-05-09T02:08:23;110.37;;;90.30;;
21170;SDS011;10743;52.160;20.910;2023-05-09T02:10:52;109.17;;;80.47;;
21170;SDS011;10743;52.160;20.910;2023-05-09T02:13:19;119.33;;;96.03;;
21170;SDS011;10743;52.160;20.910;2023-05-09T02:15:46;104.37;;;78.27;;
21170;SDS011;10743;52.160;20.910;2023-05-09T02:18:15;90.23;;;56.90;;
21170;SDS011;10743;52.160;20.910;2023-05-09T02:20:42;106.07;;;65.83;;
21170;SDS011;10743;52.160;20.910;2023-05-09T02:23:09;77.87;;;41.67;;
21170;SDS011;10743;52.160;20.910;2023-05-09T02:25:38;87.53;;;56.67;;
21170;SDS011;10743;52.160;20.910;2023-05-09T02:28:06;79.73;;;39.93;;
21170;SDS011;10743;52.160;20.910;2023-05-09T02:30:36;116.90;;;62.70;;
21170;SDS011;10743;52.160;20.910;2023-05-09T02:33:09;97.27;;;62.33;;
21170;SDS011;10743;52.160;20.910;2023-05-09T02:35:41;104.30;;;75.33;;
21170;SDS011;10743;52.160;20.910;2023-05-09T02:38:11;116.50;;;91.50;;
21170;SDS011;10743;52.160;20.910;2023-05-09T02:49:05;201.33;;;179.40;;
21170;SDS011;10743;52.160;20.910;2023-05-09T02:51:32;200.47;;;169.60;;
21170;SDS011;10743;52.160;20.910;2023-05-09T02:53:59;174.90;;;101.40;;
21170;SDS011;10743;52.160;20.910;2023-05-09T02:59:34;187.90;;;143.97;;
21170;SDS011;10743;52.160;20.910;2023-05-09T03:02:01;146.67;;;69.63;;
21170;SDS011;10743;52.160;20.910;2023-05-09T03:04:29;145.23;;;74.40;;
21170;SDS011;10743;52.160;20.910;2023-05-09T03:06:56;143.23;;;74.20;;
21170;SDS011;10743;52.160;20.910;2023-05-09T03:09:28;154.47;;;95.50;;
21170;SDS011;10743;52.160;20.910;2023-05-09T03:11:55;160.67;;;99.07;;
21170;SDS011;10743;52.160;20.910;2023-05-09T03:14:22;159.60;;;115.07;;
21170;SDS011;10743;52.160;20.910;2023-05-09T03:16:49;160.17;;;74.97;;
21170;SDS011;10743;52.160;20.910;2023-05-09T03:19:23;175.63;;;127.60;;
21170;SDS011;10743;52.160;20.910;2023-05-09T03:21:50;148.57;;;98.57;;
21170;SDS011;10743;52.160;20.910;2023-05-09T03:24:17;160.87;;;102.73;;
21170;SDS011;10743;52.160;20.910;2023-05-09T03:26:44;159.47;;;120.40;;
21170;SDS011;10743;52.160;20.910;2023-05-09T03:29:11;209.87;;;183.93;;
21170;SDS011;10743;52.160;20.910;2023-05-09T03:31:38;182.50;;;137.00;;
21170;SDS011;10743;52.160;20.910;2023-05-09T03:34:05;298.87;;;259.07;;
21170;SDS011;10743;52.160;20.910;2023-05-09T03:36:38;290.90;;;186.93;;
21170;SDS011;10743;52.160;20.910;2023-05-09T03:39:05;298.93;;;255.40;;
21170;SDS011;10743;52.160;20.910;2023-05-09T03:41:36;272.70;;;228.13;;
21170;SDS011;10743;52.160;20.910;2023-05-09T03:44:05;225.43;;;132.57;;
21170;SDS011;10743;52.160;20.910;2023-05-09T03:46:32;135.40;;;112.10;;
21170;SDS011;10743;52.160;20.910;2023-05-09T03:48:59;147.93;;;133.10;;
21170;SDS011;10743;52.160;20.910;2023-05-09T03:51:27;155.43;;;104.13;;
21170;SDS011;10743;52.160;20.910;2023-05-09T03:53:55;324.17;;;268.77;;
21170;SDS011;10743;52.160;20.910;2023-05-09T03:56:22;320.70;;;241.27;;
21170;SDS011;10743;52.160;20.910;2023-05-09T03:58:50;346.90;;;263.07;;
21170;SDS011;10743;52.160;20.910;2023-05-09T04:01:18;302.97;;;199.30;;
21170;SDS011;10743;52.160;20.910;2023-05-09T04:03:45;291.33;;;205.10;;
21170;SDS011;10743;52.160;20.910;2023-05-09T04:06:13;263.07;;;141.80;;
21170;SDS011;10743;52.160;20.910;2023-05-09T04:08:42;331.67;;;288.93;;
21170;SDS011;10743;52.160;20.910;2023-05-09T04:11:10;278.27;;;205.77;;
21170;SDS011;10743;52.160;20.910;2023-05-09T04:13:41;280.90;;;215.27;;
21170;SDS011;10743;52.160;20.910;2023-05-09T04:16:20;283.73;;;218.00;;
21170;SDS011;10743;52.160;20.910;2023-05-09T04:18:47;266.43;;;193.73;;
21170;SDS011;10743;52.160;20.910;2023-05-09T04:21:15;290.30;;;212.83;;
21170;SDS011;10743;52.160;20.910;2023-05-09T04:23:45;265.27;;;119.73;;
21170;SDS011;10743;52.160;20.910;2023-05-09T04:26:15;240.60;;;186.60;;
21170;SDS011;10743;52.160;20.910;2023-05-09T04:28:47;328.97;;;243.57;;
21170;SDS011;10743;52.160;20.910;2023-05-09T04:31:15;254.27;;;117.47;;
21170;SDS011;10743;52.160;20.910;2023-05-09T04:33:47;251.37;;;115.47;;
21170;SDS011;10743;52.160;20.910;2023-05-09T04:36:14;260.37;;;131.43;;
21170;SDS011;10743;52.160;20.910;2023-05-09T04:38:42;253.37;;;125.60;;
21170;SDS011;10743;52.160;20.910;2023-05-09T04:41:13;247.00;;;95.57;;
21170;SDS011;10743;52.160;20.910;2023-05-09T04:43:41;301.10;;;182.07;;
21170;SDS011;10743;52.160;20.910;2023-05-09T04:46:08;270.03;;;128.43;;
21170;SDS011;10743;52.160;20.910;2023-05-09T04:48:36;249.07;;;101.37;;
21170;SDS011;10743;52.160;20.910;2023-05-09T04:51:03;249.77;;;102.77;;
21170;SDS011;10743;52.160;20.910;2023-05-09T04:53:30;265.93;;;118.00;;
21170;SDS011;10743;52.160;20.910;2023-05-09T04:55:58;251.47;;;110.77;;
21170;SDS011;10743;52.160;20.910;2023-05-09T04:58:27;262.07;;;174.47;;
21170;SDS011;10743;52.160;20.910;2023-05-09T05:00:55;233.17;;;114.07;;
21170;SDS011;10743;52.160;20.910;2023-05-09T05:03:22;245.20;;;107.33;;
21170;SDS011;10743;52.160;20.910;2023-05-09T05:05:49;244.17;;;165.97;;
21170;SDS011;10743;52.160;20.910;2023-05-09T05:08:17;207.97;;;121.67;;
21170;SDS011;10743;52.160;20.910;2023-05-09T05:10:45;253.03;;;198.53;;
21170;SDS011;10743;52.160;20.910;2023-05-09T05:13:15;259.73;;;160.67;;
21170;SDS011;10743;52.160;20.910;2023-05-09T05:15:47;271.27;;;223.37;;
21170;SDS011;10743;52.160;20.910;2023-05-09T05:18:15;338.50;;;302.17;;
21170;SDS011;10743;52.160;20.910;2023-05-09T05:20:43;241.43;;;173.30;;
21170;SDS011;10743;52.160;20.910;2023-05-09T05:23:10;241.87;;;208.73;;
21170;SDS011;10743;52.160;20.910;2023-05-09T05:25:37;294.43;;;225.03;;
21170;SDS011;10743;52.160;20.910;2023-05-09T05:28:04;230.00;;;181.63;;
21170;SDS011;10743;52.160;20.910;2023-05-09T05:30:32;217.97;;;72.83;;
21170;SDS011;10743;52.160;20.910;2023-05-09T05:33:00;251.57;;;211.27;;
21170;SDS011;10743;52.160;20.910;2023-05-09T05:35:28;261.50;;;164.30;;
21170;SDS011;10743;52.160;20.910;2023-05-09T05:37:56;267.20;;;202.80;;
21170;SDS011;10743;52.160;20.910;2023-05-09T05:40:24;259.30;;;180.73;;
21170;SDS011;10743;52.160;20.910;2023-05-09T05:42:52;219.33;;;140.20;;
21170;SDS011;10743;52.160;20.910;2023-05-09T05:45:20;245.63;;;171.77;;
21170;SDS011;10743;52.160;20.910;2023-05-09T05:47:51;244.90;;;165.60;;
21170;SDS011;10743;52.160;20.910;2023-05-09T05:50:19;244.10;;;122.77;;
21170;SDS011;10743;52.160;20.910;2023-05-09T05:52:46;224.63;;;174.00;;
21170;SDS011;10743;52.160;20.910;2023-05-09T05:55:15;232.40;;;146.03;;
21170;SDS011;10743;52.160;20.910;2023-05-09T05:57:43;205.90;;;142.27;;
21170;SDS011;10743;52.160;20.910;2023-05-09T06:00:12;213.73;;;169.60;;
21170;SDS011;10743;52.160;20.910;2023-05-09T06:02:56;223.63;;;160.43;;
21170;SDS011;10743;52.160;20.910;2023-05-09T06:05:34;220.47;;;137.00;;
21170;SDS011;10743;52.160;20.910;2023-05-09T06:08:01;226.77;;;182.00;;
21170;SDS011;10743;52.160;20.910;2023-05-09T06:10:30;274.57;;;165.00;;
21170;SDS011;10743;52.160;20.910;2023-05-09T06:12:57;259.97;;;144.43;;
21170;SDS011;10743;52.160;20.910;2023-05-09T06:15:24;260.27;;;144.43;;
21170;SDS011;10743;52.160;20.910;2023-05-09T06:17:53;219.60;;;141.20;;
21170;SDS011;10743;52.160;20.910;2023-05-09T06:20:33;251.17;;;221.97;;
21170;SDS011;10743;52.160;20.910;2023-05-09T06:23:01;236.00;;;179.73;;
21170;SDS011;10743;52.160;20.910;2023-05-09T06:25:28;245.80;;;122.57;;
21170;SDS011;10743;52.160;20.910;2023-05-09T06:27:55;222.90;;;148.50;;
21170;SDS011;10743;52.160;20.910;2023-05-09T06:30:22;296.48;;;268.40;;
21170;SDS011;10743;52.160;20.910;2023-05-09T06:32:52;279.02;;;252.15;;
21170;SDS011;10743;52.160;20.910;2023-05-09T06:35:20;367.87;;;327.67;;
21170;SDS011;10743;52.160;20.910;2023-05-09T06:37:48;262.03;;;116.33;;
21170;SDS011;10743;52.160;20.910;2023-05-09T06:40:15;271.43;;;119.53;;
21170;SDS011;10743;52.160;20.910;2023-05-09T06:42:43;202.85;;;119.30;;
21170;SDS011;10743;52.160;20.910;2023-05-09T06:45:10;230.85;;;109.18;;
21170;SDS011;10743;52.160;20.910;2023-05-09T06:47:38;234.03;;;75.07;;
21170;SDS011;10743;52.160;20.910;2023-05-09T06:50:05;232.43;;;99.65;;
21170;SDS011;10743;52.160;20.910;2023-05-09T06:52:33;231.55;;;102.93;;
21170;SDS011;10743;52.160;20.910;2023-05-09T06:55:01;222.32;;;135.45;;
21170;SDS011;10743;52.160;20.910;2023-05-09T06:57:29;272.27;;;128.90;;
21170;SDS011;10743;52.160;20.910;2023-05-09T06:59:56;288.70;;;259.33;;
21170;SDS011;10743;52.160;20.910;2023-05-09T07:02:23;280.42;;;217.80;;
21170;SDS011;10743;52.160;20.910;2023-05-09T07:04:51;255.32;;;154.48;;
21170;SDS011;10743;52.160;20.910;2023-05-09T07:07:18;234.13;;;79.28;;
21170;SDS011;10743;52.160;20.910;2023-05-09T07:09:45;415.40;;;313.17;;
21170;SDS011;10743;52.160;20.910;2023-05-09T07:12:14;384.40;;;238.10;;
21170;SDS011;10743;52.160;20.910;2023-05-09T07:14:41;316.08;;;175.77;;
21170;SDS011;10743;52.160;20.910;2023-05-09T07:17:08;260.87;;;107.80;;
21170;SDS011;10743;52.160;20.910;2023-05-09T07:19:48;258.83;;;100.53;;
21170;SDS011;10743;52.160;20.910;2023-05-09T07:22:16;246.83;;;83.90;;
21170;SDS011;10743;52.160;20.910;2023-05-09T07:24:43;235.33;;;71.40;;
21170;SDS011;10743;52.160;20.910;2023-05-09T07:27:11;225.10;;;70.70;;
21170;SDS011;10743;52.160;20.910;2023-05-09T07:29:38;221.43;;;66.68;;
21170;SDS011;10743;52.160;20.910;2023-05-09T07:32:05;227.27;;;62.33;;
21170;SDS011;10743;52.160;20.910;2023-05-09T07:34:33;224.35;;;66.57;;
21170;SDS011;10743;52.160;20.910;2023-05-09T07:37:01;230.88;;;76.05;;
21170;SDS011;10743;52.160;20.910;2023-05-09T07:39:28;218.53;;;58.30;;
21170;SDS011;10743;52.160;20.910;2023-05-09T07:41:55;238.50;;;75.40;;
21170;SDS011;10743;52.160;20.910;2023-05-09T07:44:22;236.00;;;79.45;;
21170;SDS011;10743;52.160;20.910;2023-05-09T07:46:49;175.15;;;120.45;;
21170;SDS011;10743;52.160;20.910;2023-05-09T07:49:16;206.48;;;130.00;;
21170;SDS011;10743;52.160;20.910;2023-05-09T07:51:43;181.82;;;104.18;;
21170;SDS011;10743;52.160;20.910;2023-05-09T07:54:10;210.38;;;123.35;;
21170;SDS011;10743;52.160;20.910;2023-05-09T07:56:37;172.75;;;92.18;;
21170;SDS011;10743;52.160;20.910;2023-05-09T07:59:04;133.15;;;92.07;;
21170;SDS011;10743;52.160;20.910;2023-05-09T08:01:31;185.45;;;114.82;;
21170;SDS011;10743;52.160;20.910;2023-05-09T08:03:58;235.30;;;144.98;;
21170;SDS011;10743;52.160;20.910;2023-05-09T08:06:25;214.07;;;159.90;;
21170;SDS011;10743;52.160;20.910;2023-05-09T08:08:53;184.63;;;149.23;;
21170;SDS011;10743;52.160;20.910;2023-05-09T08:11:20;178.18;;;117.88;;
21170;SDS011;10743;52.160;20.910;2023-05-09T08:13:47;174.90;;;68.00;;
21170;SDS011;10743;52.160;20.910;2023-05-09T08:16:14;195.82;;;154.02;;
21170;SDS011;10743;52.160;20.910;2023-05-09T08:18:43;168.15;;;101.63;;
21170;SDS011;10743;52.160;20.910;2023-05-09T08:21:10;212.65;;;98.90;;
21170;SDS011;10743;52.160;20.910;2023-05-09T08:23:37;96.35;;;52.55;;
21170;SDS011;10743;52.160;20.910;2023-05-09T08:26:05;220.38;;;63.65;;
21170;SDS011;10743;52.160;20.910;2023-05-09T08:28:33;226.73;;;62.63;;
21170;SDS011;10743;52.160;20.910;2023-05-09T08:31:00;223.60;;;61.83;;
21170;SDS011;10743;52.160;20.910;2023-05-09T08:33:27;225.90;;;66.47;;
21170;SDS011;10743;52.160;20.910;2023-05-09T08:35:54;223.52;;;59.85;;
21170;SDS011;10743;52.160;20.910;2023-05-09T08:38:21;228.77;;;66.78;;
21170;SDS011;10743;52.160;20.910;2023-05-09T08:40:49;226.50;;;67.13;;
21170;SDS011;10743;52.160;20.910;2023-05-09T08:43:16;228.38;;;63.65;;
21170;SDS011;10743;52.160;20.910;2023-05-09T08:45:49;235.00;;;71.28;;
21170;SDS011;10743;52.160;20.910;2023-05-09T08:48:39;225.60;;;69.60;;
21170;SDS011;10743;52.160;20.910;2023-05-09T08:51:08;235.10;;;67.40;;
21170;SDS011;10743;52.160;20.910;2023-05-09T08:53:37;230.98;;;70.35;;
21170;SDS011;10743;52.160;20.910;2023-05-09T08:56:04;229.10;;;59.40;;
21170;SDS011;10743;52.160;20.910;2023-05-09T08:58:32;273.38;;;66.10;;
21170;SDS011;10743;52.160;20.910;2023-05-09T09:00:59;239.20;;;74.25;;
21170;SDS011;10743;52.160;20.910;2023-05-09T09:03:31;232.90;;;67.45;;
21170;SDS011;10743;52.160;20.910;2023-05-09T09:05:58;232.45;;;72.50;;
21170;SDS011;10743;52.160;20.910;2023-05-09T09:08:28;230.40;;;64.07;;
21170;SDS011;10743;52.160;20.910;2023-05-09T09:10:55;239.63;;;85.72;;
21170;SDS011;10743;52.160;20.910;2023-05-09T09:13:23;246.88;;;96.05;;
21170;SDS011;10743;52.160;20.910;2023-05-09T09:15:51;230.93;;;74.65;;
21170;SDS011;10743;52.160;20.910;2023-05-09T09:18:22;236.30;;;75.50;;
21170;SDS011;10743;52.160;20.910;2023-05-09T09:20:58;229.23;;;117.00;;
21170;SDS011;10743;52.160;20.910;2023-05-09T09:23:34;221.15;;;94.40;;
21170;SDS011;10743;52.160;20.910;2023-05-09T09:26:06;219.52;;;121.57;;
21170;SDS011;10743;52.160;20.910;2023-05-09T09:28:33;154.00;;;73.35;;
21170;SDS011;10743;52.160;20.910;2023-05-09T09:31:00;170.35;;;77.03;;
21170;SDS011;10743;52.160;20.910;2023-05-09T09:33:28;167.23;;;88.47;;
21170;SDS011;10743;52.160;20.910;2023-05-09T09:35:55;166.73;;;80.15;;
21170;SDS011;10743;52.160;20.910;2023-05-09T09:38:23;177.07;;;105.60;;
21170;SDS011;10743;52.160;20.910;2023-05-09T09:43:17;164.73;;;85.20;;
21170;SDS011;10743;52.160;20.910;2023-05-09T09:45:48;178.15;;;95.47;;
21170;SDS011;10743;52.160;20.910;2023-05-09T09:48:22;182.38;;;93.88;;
21170;SDS011;10743;52.160;20.910;2023-05-09T09:50:57;182.98;;;101.40;;
21170;SDS011;10743;52.160;20.910;2023-05-09T09:53:40;180.15;;;79.63;;
21170;SDS011;10743;52.160;20.910;2023-05-09T09:56:09;202.13;;;99.85;;
21170;SDS011;10743;52.160;20.910;2023-05-09T09:58:36;204.70;;;89.30;;
21170;SDS011;10743;52.160;20.910;2023-05-09T10:03:44;158.15;;;81.35;;
21170;SDS011;10743;52.160;20.910;2023-05-09T10:06:15;150.57;;;73.22;;
21170;SDS011;10743;52.160;20.910;2023-05-09T10:08:43;140.02;;;76.95;;
21170;SDS011;10743;52.160;20.910;2023-05-09T10:11:14;135.13;;;87.10;;
21170;SDS011;10743;52.160;20.910;2023-05-09T10:13:41;252.00;;;109.07;;
21170;SDS011;10743;52.160;20.910;2023-05-09T10:16:09;238.13;;;94.65;;
21170;SDS011;10743;52.160;20.910;2023-05-09T10:18:38;248.10;;;110.25;;
21170;SDS011;10743;52.160;20.910;2023-05-09T10:21:08;239.00;;;91.70;;
21170;SDS011;10743;52.160;20.910;2023-05-09T10:23:41;248.60;;;110.43;;
21170;SDS011;10743;52.160;20.910;2023-05-09T10:26:16;127.95;;;68.05;;
21170;SDS011;10743;52.160;20.910;2023-05-09T10:28:50;119.80;;;86.15;;
21170;SDS011;10743;52.160;20.910;2023-05-09T10:31:22;112.05;;;78.43;;
21170;SDS011;10743;52.160;20.910;2023-05-09T10:33:53;144.40;;;108.80;;
21170;SDS011;10743;52.160;20.910;2023-05-09T10:36:24;141.02;;;101.72;;
21170;SDS011;10743;52.160;20.910;2023-05-09T10:38:54;114.57;;;89.85;;
21170;SDS011;10743;52.160;20.910;2023-05-09T10:41:21;123.82;;;62.92;;
21170;SDS011;10743;52.160;20.910;2023-05-09T10:43:49;93.95;;;51.40;;
21170;SDS011;10743;52.160;20.910;2023-05-09T10:46:17;126.40;;;57.65;;
21170;SDS011;10743;52.160;20.910;2023-05-09T10:48:44;145.32;;;66.13;;
21170;SDS011;10743;52.160;20.910;2023-05-09T10:51:13;142.18;;;62.15;;
21170;SDS011;10743;52.160;20.910;2023-05-09T10:59:01;125.05;;;61.00;;
21170;SDS011;10743;52.160;20.910;2023-05-09T11:01:29;128.82;;;59.60;;
21170;SDS011;10743;52.160;20.910;2023-05-09T11:04:11;136.02;;;58.88;;
21170;SDS011;10743;52.160;20.910;2023-05-09T11:06:43;122.65;;;55.67;;
21170;SDS011;10743;52.160;20.910;2023-05-09T11:14:32;127.47;;;54.13;;
21170;SDS011;10743;52.160;20.910;2023-05-09T11:17:26;106.72;;;55.38;;
21170;SDS011;10743;52.160;20.910;2023-05-09T11:19:56;84.47;;;58.45;;
21170;SDS011;10743;52.160;20.910;2023-05-09T11:22:29;113.80;;;54.90;;
21170;SDS011;10743;52.160;20.910;2023-05-09T11:25:07;99.47;;;57.55;;
21170;SDS011;10743;52.160;20.910;2023-05-09T11:30:16;82.05;;;48.65;;
21170;SDS011;10743;52.160;20.910;2023-05-09T11:32:46;76.78;;;52.22;;
21170;SDS011;10743;52.160;20.910;2023-05-09T11:35:18;62.45;;;41.47;;
21170;SDS011;10743;52.160;20.910;2023-05-09T11:37:51;99.68;;;66.03;;
21170;SDS011;10743;52.160;20.910;2023-05-09T11:40:33;55.08;;;35.47;;
21170;SDS011;10743;52.160;20.910;2023-05-09T11:43:00;86.50;;;50.53;;
21170;SDS011;10743;52.160;20.910;2023-05-09T11:45:28;59.20;;;40.50;;
21170;SDS011;10743;52.160;20.910;2023-05-09T11:47:58;46.38;;;32.58;;
21170;SDS011;10743;52.160;20.910;2023-05-09T11:50:26;129.85;;;38.10;;
21170;SDS011;10743;52.160;20.910;2023-05-09T11:52:54;69.85;;;40.40;;
21170;SDS011;10743;52.160;20.910;2023-05-09T11:55:21;56.88;;;32.30;;
21170;SDS011;10743;52.160;20.910;2023-05-09T11:57:51;66.60;;;38.30;;
21170;SDS011;10743;52.160;20.910;2023-05-09T12:00:23;104.75;;;48.55;;
21170;SDS011;10743;52.160;20.910;2023-05-09T12:02:52;87.03;;;48.05;;
21170;SDS011;10743;52.160;20.910;2023-05-09T12:05:20;76.93;;;44.88;;
21170;SDS011;10743;52.160;20.910;2023-05-09T12:07:48;62.40;;;42.53;;
21170;SDS011;10743;52.160;20.910;2023-05-09T12:10:20;64.90;;;48.75;;
21170;SDS011;10743;52.160;20.910;2023-05-09T12:12:49;43.95;;;37.20;;
21170;SDS011;10743;52.160;20.910;2023-05-09T12:15:17;45.55;;;28.65;;
21170;SDS011;10743;52.160;20.910;2023-05-09T12:17:47;45.90;;;28.10;;
21170;SDS011;10743;52.160;20.910;2023-05-09T12:23:10;44.15;;;33.10;;
21170;SDS011;10743;52.160;20.910;2023-05-09T12:25:52;46.58;;;31.77;;
21170;SDS011;10743;52.160;20.910;2023-05-09T12:28:22;42.28;;;30.77;;
21170;SDS011;10743;52.160;20.910;2023-05-09T12:30:51;74.60;;;41.38;;
21170;SDS011;10743;52.160;20.910;2023-05-09T12:33:19;45.95;;;35.70;;
21170;SDS011;10743;52.160;20.910;2023-05-09T12:35:48;44.70;;;33.08;;
21170;SDS011;10743;52.160;20.910;2023-05-09T12:38:28;39.55;;;31.05;;
21170;SDS011;10743;52.160;20.910;2023-05-09T12:40:59;28.02;;;20.10;;
21170;SDS011;10743;52.160;20.910;2023-05-09T12:43:38;10.95;;;6.07;;
21170;SDS011;10743;52.160;20.910;2023-05-09T12:46:05;18.35;;;9.00;;
21170;SDS011;10743;52.160;20.910;2023-05-09T12:48:34;17.75;;;13.80;;
21170;SDS011;10743;52.160;20.910;2023-05-09T12:51:04;16.33;;;6.78;;
21170;SDS011;10743;52.160;20.910;2023-05-09T12:53:35;15.15;;;3.15;;
21170;SDS011;10743;52.160;20.910;2023-05-09T12:56:11;22.17;;;3.60;;
21170;SDS011;10743;52.160;20.910;2023-05-09T12:58:54;7.47;;;2.40;;
21170;SDS011;10743;52.160;20.910;2023-05-09T13:01:25;12.77;;;2.80;;
21170;SDS011;10743;52.160;20.910;2023-05-09T13:04:01;12.48;;;2.47;;
21170;SDS011;10743;52.160;20.910;2023-05-09T13:06:30;34.30;;;23.85;;
21170;SDS011;10743;52.160;20.910;2023-05-09T13:08:58;25.42;;;16.92;;
21170;SDS011;10743;52.160;20.910;2023-05-09T13:11:27;110.68;;;61.25;;
21170;SDS011;10743;52.160;20.910;2023-05-09T13:13:54;67.82;;;47.92;;
21170;SDS011;10743;52.160;20.910;2023-05-09T13:16:22;49.95;;;36.63;;
21170;SDS011;10743;52.160;20.910;2023-05-09T13:18:49;42.10;;;24.73;;
21170;SDS011;10743;52.160;20.910;2023-05-09T13:21:16;21.23;;;6.28;;
21170;SDS011;10743;52.160;20.910;2023-05-09T13:23:43;17.88;;;3.88;;
21170;SDS011;10743;52.160;20.910;2023-05-09T13:26:11;21.05;;;4.50;;
21170;SDS011;10743;52.160;20.910;2023-05-09T13:28:38;27.90;;;7.80;;
21170;SDS011;10743;52.160;20.910;2023-05-09T13:31:05;55.90;;;35.42;;
21170;SDS011;10743;52.160;20.910;2023-05-09T13:33:33;33.40;;;16.38;;
21170;SDS011;10743;52.160;20.910;2023-05-09T13:36:00;114.95;;;67.43;;
21170;SDS011;10743;52.160;20.910;2023-05-09T13:38:27;132.80;;;68.15;;
21170;SDS011;10743;52.160;20.910;2023-05-09T13:40:57;147.15;;;74.72;;
21170;SDS011;10743;52.160;20.910;2023-05-09T13:43:25;140.55;;;76.07;;
21170;SDS011;10743;52.160;20.910;2023-05-09T13:45:52;137.88;;;59.50;;
21170;SDS011;10743;52.160;20.910;2023-05-09T13:48:19;134.98;;;57.22;;
21170;SDS011;10743;52.160;20.910;2023-05-09T13:50:46;198.63;;;62.30;;
21170;SDS011;10743;52.160;20.910;2023-05-09T13:53:13;120.57;;;60.45;;
21170;SDS011;10743;52.160;20.910;2023-05-09T13:55:40;106.82;;;48.42;;
21170;SDS011;10743;52.160;20.910;2023-05-09T13:58:08;114.28;;;51.58;;
21170;SDS011;10743;52.160;20.910;2023-05-09T14:00:35;104.75;;;54.33;;
21170;SDS011;10743;52.160;20.910;2023-05-09T14:03:02;74.60;;;43.65;;
21170;SDS011;10743;52.160;20.910;2023-05-09T14:05:30;113.13;;;53.88;;
21170;SDS011;10743;52.160;20.910;2023-05-09T14:07:57;111.28;;;53.88;;
21170;SDS011;10743;52.160;20.910;2023-05-09T14:10:24;92.00;;;48.03;;
21170;SDS011;10743;52.160;20.910;2023-05-09T14:12:52;94.22;;;45.50;;
21170;SDS011;10743;52.160;20.910;2023-05-09T14:15:19;117.15;;;56.13;;
21170;SDS011;10743;52.160;20.910;2023-05-09T14:17:46;86.68;;;46.78;;
21170;SDS011;10743;52.160;20.910;2023-05-09T14:20:13;112.40;;;61.00;;
21170;SDS011;10743;52.160;20.910;2023-05-09T14:22:43;112.95;;;63.55;;
21170;SDS011;10743;52.160;20.910;2023-05-09T14:25:10;118.50;;;55.60;;
21170;SDS011;10743;52.160;20.910;2023-05-09T14:27:37;120.22;;;68.22;;
21170;SDS011;10743;52.160;20.910;2023-05-09T14:30:04;103.68;;;63.78;;
21170;SDS011;10743;52.160;20.910;2023-05-09T14:32:32;126.68;;;84.25;;
21170;SDS011;10743;52.160;20.910;2023-05-09T14:34:59;135.23;;;65.38;;
21170;SDS011;10743;52.160;20.910;2023-05-09T14:37:26;140.25;;;74.40;;
21170;SDS011;10743;52.160;20.910;2023-05-09T14:39:54;117.00;;;80.97;;
21170;SDS011;10743;52.160;20.910;2023-05-09T14:42:21;130.32;;;69.25;;
21170;SDS011;10743;52.160;20.910;2023-05-09T14:44:48;147.70;;;78.53;;
21170;SDS011;10743;52.160;20.910;2023-05-09T14:47:15;135.80;;;73.05;;
21170;SDS011;10743;52.160;20.910;2023-05-09T14:49:42;144.30;;;89.20;;
21170;SDS011;10743;52.160;20.910;2023-05-09T14:52:10;149.98;;;77.28;;
21170;SDS011;10743;52.160;20.910;2023-05-09T14:54:37;138.88;;;85.47;;